Time;durP1;ratioP1;P1;durP2;ratioP2;P2;SDS_P1;SDS_P2;PMS_P1;PMS_P2;Temp;Humidity;BMP_temperature;BMP_pressure;BME280_temperature;BME280_humidity;BME280_pressure;Samples;Min_cycle;Max_cycle;Signal;HPM_P1;HPM_P2
2022/12/27 00:01:54;;;;;;;1.27;1.27;;;;;;;4.68;86.19;96252.91;5114857;28;20924;-56
2022/12/27 00:04:22;;;;;;;1.60;1.50;;;;;;;4.72;85.38;96255.94;5115239;28;20524;-56
2022/12/27 00:06:50;;;;;;;3.57;1.90;;;;;;;1.42;84.16;95812.66;5115142;28;20499;-57
2022/12/27 00:09:19;;;;;;;0.50;0.50;;;;;;;4.70;84.76;96234.34;5115329;28;20853;-56
2022/12/27 00:11:47;;;;;;;3.40;1.23;;;;;;;1.97;84.99;95850.63;5115102;28;20452;-56
2022/12/27 00:14:15;;;;;;;0.30;0.30;;;;;;;4.24;84.32;96140.88;5115095;28;20436;-56
2022/12/27 00:16:44;;;;;;;0.87;0.87;;;;;;;4.23;83.60;96133.19;5115218;28;20546;-56
2022/12/27 00:19:14;;;;;;;1.70;1.47;;;;;;;4.81;84.34;96249.41;5114903;28;20436;-56
2022/12/27 00:21:42;;;;;;;0.50;0.50;;;;;;;3.18;89.50;96097.66;5114869;28;20908;-56
2022/12/27 00:24:11;;;;;;;3.03;2.93;;;;;;;3.38;99.11;96184.09;5114748;28;20492;-56
2022/12/27 00:26:40;;;;;;;2.57;1.60;;;;;;;2.61;100.00;96067.91;5114879;28;20473;-56
2022/12/27 00:29:10;;;;;;;3.50;3.30;;;;;;;3.62;96.85;96220.13;5114735;28;20424;-56
2022/12/27 00:31:38;;;;;;;12.50;1.53;;;;;;;3.78;94.01;96253.81;5114582;28;20958;-56
2022/12/27 00:34:07;;;;;;;10.83;2.97;;;;;;;3.58;90.99;96215.50;5114356;28;20554;-56
2022/12/27 00:36:37;;;;;;;3.40;3.10;;;;;;;2.74;90.62;96170.78;5114626;28;20514;-56
2022/12/27 00:39:06;;;;;;;4.57;3.37;;;;;;;3.92;89.20;96270.34;5114417;28;20427;-57
2022/12/27 00:41:34;;;;;;;0.60;0.60;;;;;;;3.48;88.64;96184.47;5113939;28;20444;-56
2022/12/27 00:44:03;;;;;;;2.63;0.60;;;;;;;3.89;88.95;96275.19;5114325;28;20962;-56
2022/12/27 00:46:31;;;;;;;0.83;0.80;;;;;;;3.76;90.87;96281.25;5114314;28;20920;-56
2022/12/27 00:48:59;;;;;;;1.80;1.70;;;;;;;3.46;90.89;96215.34;5114266;28;20835;-56
2022/12/27 00:51:28;;;;;;;17.57;2.47;;;;;;;3.90;90.00;96261.84;5114247;28;20839;-57
2022/12/27 00:53:58;;;;;;;0.50;0.50;;;;;;;3.40;93.32;96234.47;5114066;28;20476;-56
2022/12/27 00:56:28;;;;;;;3.40;3.20;;;;;;;3.78;92.32;96258.25;5114084;28;20970;-56
2022/12/27 00:58:58;;;;;;;0.80;0.80;;;;;;;3.44;91.72;96201.59;5114302;28;20436;-56
2022/12/27 01:01:28;;;;;;;3.07;1.27;;;;;;;3.69;91.44;96248.97;5113884;28;20432;-57
2022/12/27 01:03:58;;;;;;;5.20;5.10;;;;;;;3.45;90.77;96189.31;5113830;28;20420;-56
2022/12/27 01:06:28;;;;;;;1.70;1.23;;;;;;;2.98;92.00;96161.53;5113782;28;20432;-56
2022/12/27 01:08:59;;;;;;;2.67;2.57;;;;;;;3.82;91.01;96246.31;5113724;28;20476;-56
2022/12/27 01:11:29;;;;;;;0.87;0.70;;;;;;;3.78;91.82;96248.56;5113834;28;20481;-57
2022/12/27 01:13:58;;;;;;;2.30;1.07;;;;;;;2.32;89.50;95988.00;5113559;28;21051;-56
2022/12/27 01:16:29;;;;;;;5.40;0.80;;;;;;;3.96;88.85;96240.06;5113784;28;20430;-57
2022/12/27 01:18:58;;;;;;;0.50;0.50;;;;;;;3.61;90.41;96210.69;5113133;28;20428;-57
2022/12/27 01:21:30;;;;;;;2.97;2.77;;;;;;;3.66;91.26;96242.34;5113859;28;20833;-57
2022/12/27 01:24:00;;;;;;;1.60;1.47;;;;;;;3.60;92.35;96243.13;5113371;28;20493;-57
2022/12/27 01:26:28;;;;;;;5.50;1.90;;;;;;;3.90;90.51;96251.34;5113591;28;20428;-57
2022/12/27 01:28:57;;;;;;;1.43;1.33;;;;;;;3.38;89.49;96157.06;5113355;28;20478;-57
2022/12/27 01:31:28;;;;;;;2.30;1.80;;;;;;;2.36;89.06;95997.03;5112970;28;20413;-56
2022/12/27 01:33:58;;;;;;;1.23;1.10;;;;;;;0.23;90.29;95756.00;5112911;28;20479;-57
2022/12/27 01:36:28;;;;;;;1.33;1.20;;;;;;;3.55;90.08;96194.94;5113740;28;20967;-56
2022/12/27 01:38:56;;;;;;;1.73;1.63;;;;;;;1.19;89.36;95858.22;5112816;28;20432;-57
2022/12/27 01:44:49;;;;;;;1.33;1.33;;;;;;;3.83;92.79;96227.78;5112938;28;20532;-57
2022/12/27 01:47:23;;;;;;;0.97;0.97;;;;;;;3.80;92.59;96230.81;5112940;28;20435;-57
2022/12/27 01:50:01;;;;;;;0.73;0.73;;;;;;;2.32;90.54;96004.50;5112675;28;20829;-56
2022/12/27 01:52:34;;;;;;;2.50;2.40;;;;;;;2.86;90.83;96074.91;5112195;28;20519;-57
2022/12/27 01:55:11;;;;;;;17.90;1.07;;;;;;;3.81;90.28;96210.63;5112827;28;20455;-57
2022/12/27 01:57:42;;;;;;;2.40;2.30;;;;;;;3.72;90.23;96211.84;5112303;28;20873;-55
2022/12/27 02:00:12;;;;;;;3.50;1.90;;;;;;;2.43;90.60;96055.38;5112760;28;20435;-57
2022/12/27 02:02:41;;;;;;;12.63;1.93;;;;;;;3.14;94.42;96226.59;5112703;28;20511;-56
2022/12/27 02:05:12;;;;;;;1.33;1.33;;;;;;;1.89;98.02;96004.06;5112622;28;20489;-56
2022/12/27 02:07:49;;;;;;;1.40;0.50;;;;;;;1.52;94.93;95910.50;5112732;28;20824;-56
2022/12/27 02:10:18;;;;;;;3.93;3.63;;;;;;;-0.43;94.74;95643.66;5112502;28;20427;-57
2022/12/27 02:12:48;;;;;;;2.20;2.10;;;;;;;3.24;96.91;96215.75;5112462;28;20510;-56
2022/12/27 02:15:16;;;;;;;2.20;0.73;;;;;;;2.39;94.29;96086.41;5112515;28;20499;-56
2022/12/27 02:17:44;;;;;;;1.87;0.93;;;;;;;1.89;93.40;96055.53;5112009;28;20912;-56
2022/12/27 02:20:16;;;;;;;4.43;1.67;;;;;;;0.22;96.06;95812.53;5112066;28;20523;-56
2022/12/27 02:26:32;;;;;;;2.23;0.73;;;;;;;3.36;94.80;96208.88;5112090;28;20420;-57
2022/12/27 02:29:13;;;;;;;1.63;1.53;;;;;;;3.05;92.37;96136.16;5095851;28;20454;-56
2022/12/27 02:31:49;;;;;;;8.47;1.13;;;;;;;2.56;92.13;96064.06;5112512;28;20814;-56
2022/12/27 02:34:23;;;;;;;7.00;1.80;;;;;;;3.35;92.32;96207.25;5111767;28;20467;-56
2022/12/27 02:36:57;;;;;;;2.20;2.10;;;;;;;3.43;92.66;96218.34;5111364;28;20434;-56
2022/12/27 02:39:28;;;;;;;4.50;2.43;;;;;;;3.05;95.61;96176.25;5111946;28;20436;-56
2022/12/27 02:53:10;;;;;;;6.70;2.47;;;;;;;2.83;100.00;96201.00;5111945;28;20442;-56
2022/12/27 02:59:03;;;;;;;1.00;1.00;;;;;;;1.69;95.80;95960.59;5111461;28;21153;-56
2022/12/27 03:04:50;;;;;;;0.60;0.50;;;;;;;3.15;93.75;96171.41;5115081;28;20420;-56
2022/12/27 03:07:29;;;;;;;0.60;0.60;;;;;;;2.00;92.05;95963.44;5117714;28;20939;-56
2022/12/27 03:16:12;;;;;;;2.00;0.70;;;;;;;2.95;96.65;96156.69;5118477;28;20556;-56
2022/12/27 03:18:59;;;;;;;1.43;1.43;;;;;;;3.21;93.38;96152.25;5117586;28;20442;-56
2022/12/27 03:27:16;;;;;;;0.80;0.80;;;;;;;2.87;93.04;96149.03;5118715;28;20453;-56
2022/12/27 03:35:36;;;;;;;0.80;0.80;;;;;;;2.65;94.38;96066.50;5118368;28;20587;-57
2022/12/27 03:38:06;;;;;;;1.93;1.80;;;;;;;3.34;94.43;96175.00;5118657;28;20667;-56
2022/12/27 03:43:09;;;;;;;2.10;1.90;;;;;;;3.40;96.05;96181.25;5118420;28;20420;-56
2022/12/27 03:43:33;;;;;;;0.83;0.50;;;;;;;3.44;94.17;96185.88;5118260;28;20446;-56
2022/12/27 03:49:19;;;;;;;1.40;1.30;;;;;;;2.54;95.17;96060.84;5055108;28;20481;-56
2022/12/27 03:51:55;;;;;;;0.63;0.63;;;;;;;2.10;95.63;95955.22;5107073;28;20526;-56
2022/12/27 03:54:29;;;;;;;17.60;0.80;;;;;;;3.18;95.92;96128.28;5118139;28;20463;-56
2022/12/27 03:57:00;;;;;;;0.70;0.70;;;;;;;3.06;100.00;96177.06;5118070;28;20424;-56
2022/12/27 03:59:32;;;;;;;0.93;0.93;;;;;;;3.09;100.00;96171.41;5118460;28;20510;-56
2022/12/27 04:02:00;;;;;;;1.80;1.23;;;;;;;3.36;97.38;96170.41;5118126;28;20432;-57
2022/12/27 04:04:29;;;;;;;0.77;0.77;;;;;;;2.40;95.62;96008.72;5118375;28;20440;-56
2022/12/27 04:06:59;;;;;;;0.93;0.93;;;;;;;3.40;93.96;96176.81;5118032;28;20424;-56
2022/12/27 04:34:42;;;;;;;1.53;1.43;;;;;;;-1.39;93.07;95662.63;5114204;28;21008;-57
2022/12/27 04:37:13;;;;;;;1.10;1.07;;;;;;;2.71;92.16;96196.56;5114338;28;20435;-56
2022/12/27 04:54:55;;;;;;;2.97;2.87;;;;;;;0.06;90.89;95739.06;5114481;28;20488;-57
2022/12/27 04:56:35;;;;;;;6.00;3.90;;;;;;;2.32;92.47;96192.03;5113833;28;20462;-57
2022/12/27 05:02:05;;;;;;;1.70;1.17;;;;;;;2.43;91.45;96204.50;5114007;28;20427;-57
2022/12/27 05:04:37;;;;;;;2.10;2.00;;;;;;;2.64;90.41;96206.19;5113729;28;20464;-57
2022/12/27 05:15:23;;;;;;;1.90;1.90;;;;;;;2.27;95.33;96197.84;5113840;28;20540;-57
2022/12/27 05:17:52;;;;;;;0.57;0.57;;;;;;;-1.41;95.93;95693.19;5113474;28;20431;-58
2022/12/27 05:20:20;;;;;;;2.60;2.40;;;;;;;2.21;94.95;96166.41;5113487;28;20424;-57
2022/12/27 05:25:35;;;;;;;1.30;1.30;;;;;;;1.82;94.86;96127.88;5113454;28;20472;-57
2022/12/27 05:28:08;;;;;;;1.80;1.70;;;;;;;1.27;98.45;96043.41;5112743;28;20459;-57
2022/12/27 05:30:39;;;;;;;3.43;1.60;;;;;;;2.19;97.68;96197.19;5113275;28;20530;-57
2022/12/27 05:33:09;;;;;;;1.47;1.47;;;;;;;2.43;97.05;96209.75;5113548;28;20435;-57
2022/12/27 05:35:37;;;;;;;1.40;1.40;;;;;;;0.26;93.53;95826.78;5113186;28;20886;-58
2022/12/27 05:38:06;;;;;;;2.20;1.63;;;;;;;2.62;94.05;96221.28;5113047;28;20940;-57
2022/12/27 05:40:35;;;;;;;2.33;2.13;;;;;;;2.98;91.95;96229.63;5113181;28;20503;-57
2022/12/27 05:43:05;;;;;;;2.20;1.23;;;;;;;3.08;88.50;96141.00;5113215;28;20432;-57
2022/12/27 05:45:34;;;;;;;1.70;1.67;;;;;;;3.57;86.08;96206.84;5113029;28;20430;-57
2022/12/27 05:48:02;;;;;;;6.13;0.60;;;;;;;2.37;85.42;96064.88;5113014;28;20936;-57
2022/12/27 05:50:31;;;;;;;2.10;1.77;;;;;;;3.67;84.75;96162.66;5112985;28;20550;-57
2022/12/27 05:53:00;;;;;;;0.87;0.87;;;;;;;3.77;83.43;96207.59;5112865;28;20432;-58
2022/12/27 05:55:28;;;;;;;1.53;1.43;;;;;;;2.98;87.95;96203.44;5112231;28;20494;-57
2022/12/27 05:57:57;;;;;;;2.30;0.90;;;;;;;2.81;90.70;96228.38;5113109;28;20428;-57
2022/12/27 06:00:27;;;;;;;2.80;1.27;;;;;;;1.49;87.83;95897.06;5112640;28;20428;-57
2022/12/27 06:02:55;;;;;;;1.70;1.60;;;;;;;2.89;86.73;96213.28;5112974;28;20430;-57
2022/12/27 06:05:24;;;;;;;2.23;2.13;;;;;;;2.91;87.15;96192.94;5112650;28;20428;-57
2022/12/27 06:07:53;;;;;;;2.70;2.50;;;;;;;3.25;87.09;96228.63;5112687;28;20459;-57
2022/12/27 06:10:22;;;;;;;2.40;2.30;;;;;;;2.95;85.68;96232.63;5112546;28;20435;-57
2022/12/27 06:12:50;;;;;;;1.40;1.30;;;;;;;-0.59;82.42;95674.41;5112447;28;20475;-57
2022/12/27 06:15:19;;;;;;;3.23;2.63;;;;;;;1.02;82.90;95990.09;5112338;28;20475;-57
2022/12/27 06:17:49;;;;;;;2.23;2.13;;;;;;;2.10;84.93;96230.53;5112514;28;20458;-57
2022/12/27 06:20:18;;;;;;;2.00;1.90;;;;;;;-0.51;85.24;95831.28;5111932;28;20451;-57
2022/12/27 06:22:47;;;;;;;6.40;1.50;;;;;;;0.99;83.12;95980.03;5112400;28;20481;-57
2022/12/27 06:25:15;;;;;;;1.23;1.23;;;;;;;3.01;80.73;96161.16;5112277;28;20432;-57
2022/12/27 06:27:43;;;;;;;2.00;1.90;;;;;;;3.02;78.71;96113.78;5112296;28;20992;-57
2022/12/27 06:30:14;;;;;;;1.27;1.17;;;;;;;2.97;78.32;96105.75;5112071;28;20432;-57
2022/12/27 06:32:42;;;;;;;3.00;1.73;;;;;;;4.50;76.34;96235.22;5111999;28;20431;-58
2022/12/27 06:35:12;;;;;;;1.10;1.10;;;;;;;4.24;76.26;96219.59;5112153;28;20532;-57
2022/12/27 06:37:40;;;;;;;2.27;1.90;;;;;;;2.95;76.00;96017.94;5111961;28;20497;-57
2022/12/27 06:40:10;;;;;;;1.73;1.63;;;;;;;4.04;77.20;96220.66;5111787;28;20807;-57
2022/12/27 06:42:38;;;;;;;1.43;1.33;;;;;;;2.96;77.96;96059.59;5112010;28;20470;-57
2022/12/27 06:45:10;;;;;;;1.77;1.63;;;;;;;4.00;78.73;96216.84;5112112;28;20424;-56
2022/12/27 06:47:39;;;;;;;1.80;1.70;;;;;;;4.15;79.04;96225.28;5112130;28;20470;-57
2022/12/27 06:50:08;;;;;;;5.03;3.93;;;;;;;4.51;76.47;96188.78;5111569;28;21037;-57
2022/12/27 06:52:37;;;;;;;3.00;2.80;;;;;;;3.63;77.08;96082.84;5111938;28;20420;-57
2022/12/27 06:55:06;;;;;;;2.10;2.00;;;;;;;4.24;77.50;96214.34;5111865;28;20428;-57
2022/12/27 06:57:34;;;;;;;2.60;2.40;;;;;;;4.25;77.74;96226.44;5111720;28;20473;-57
2022/12/27 07:00:04;;;;;;;2.43;2.33;;;;;;;4.42;77.50;96213.66;5111606;28;20518;-57
2022/12/27 07:02:32;;;;;;;2.10;1.90;;;;;;;3.92;76.61;96112.19;5111649;28;20430;-57
2022/12/27 07:05:01;;;;;;;3.73;1.80;;;;;;;4.12;76.97;96179.28;5111855;28;20438;-57
2022/12/27 07:07:29;;;;;;;5.10;4.90;;;;;;;4.23;77.61;96227.66;5111272;28;20443;-57
2022/12/27 07:09:59;;;;;;;3.67;2.93;;;;;;;4.86;74.76;96208.38;5111156;28;20666;-57
2022/12/27 07:12:27;;;;;;;8.93;4.87;;;;;;;4.70;74.35;96201.00;5110856;28;20432;-56
2022/12/27 07:15:04;;;;;;;3.17;2.97;;;;;;;5.42;73.20;96224.16;5111214;28;20430;-56
2022/12/27 07:17:32;;;;;;;4.80;4.40;;;;;;;5.82;71.19;96205.41;5111717;28;20408;-57
2022/12/27 07:20:03;;;;;;;9.47;5.70;;;;;;;6.06;70.07;96233.50;5111509;28;20420;-58
2022/12/27 07:22:31;;;;;;;23.23;7.83;;;;;;;5.60;70.09;96226.03;5111301;28;20434;-58
2022/12/27 07:25:01;;;;;;;5.93;5.53;;;;;;;5.53;68.88;96230.53;5111294;28;20504;-58
2022/12/27 07:27:32;;;;;;;10.33;4.93;;;;;;;5.97;67.96;96201.41;5111377;28;20444;-58
2022/12/27 07:30:01;;;;;;;5.03;2.40;;;;;;;6.50;66.94;96221.88;5110796;28;20428;-58
2022/12/27 07:32:29;;;;;;;4.37;4.13;;;;;;;7.04;64.61;96232.28;5111843;28;20420;-57
2022/12/27 07:34:57;;;;;;;9.20;8.40;;;;;;;6.83;64.32;96223.03;5111431;28;20429;-57
2022/12/27 07:37:26;;;;;;;2.60;2.40;;;;;;;7.23;62.38;96156.59;5110999;28;20479;-57
2022/12/27 07:39:54;;;;;;;9.40;2.67;;;;;;;7.55;61.89;96210.63;5111408;28;20439;-58
2022/12/27 07:42:24;;;;;;;12.10;2.90;;;;;;;8.26;61.07;96202.44;5111021;28;20865;-58
2022/12/27 07:44:52;;;;;;;4.93;4.57;;;;;;;7.72;61.30;96216.00;5111333;28;20602;-59
2022/12/27 07:47:20;;;;;;;2.00;1.90;;;;;;;8.32;60.23;96209.47;5110577;28;20949;-60
2022/12/27 07:49:48;;;;;;;4.20;3.97;;;;;;;7.80;61.39;96220.94;5111025;28;20472;-61
2022/12/27 07:52:17;;;;;;;4.40;4.00;;;;;;;8.70;59.51;96211.56;5113689;28;20475;-61
2022/12/27 07:54:45;;;;;;;1.70;1.70;;;;;;;9.13;58.39;96216.31;5114086;28;20463;-61
2022/12/27 07:57:13;;;;;;;5.77;4.60;;;;;;;9.51;58.55;96208.50;5115016;28;20470;-59
2022/12/27 07:59:43;;;;;;;3.90;3.70;;;;;;;9.35;57.38;96204.00;5114572;28;20428;-61
2022/12/27 08:02:12;;;;;;;3.87;3.57;;;;;;;9.92;57.11;96208.06;5114921;28;20431;-63
2022/12/27 08:04:40;;;;;;;4.83;4.43;;;;;;;10.36;55.33;96208.16;5114131;28;20945;-62
2022/12/27 08:07:14;;;;;;;1.47;1.47;;;;;;;10.90;54.14;96196.59;5114883;28;20437;-62
2022/12/27 08:09:45;;;;;;;3.40;3.30;;;;;;;11.16;53.12;96195.78;5114112;28;20985;-61
2022/12/27 08:12:14;;;;;;;5.33;4.60;;;;;;;11.66;52.72;96206.06;5114691;28;20927;-61
2022/12/27 08:14:44;;;;;;;8.63;4.60;;;;;;;11.57;52.72;96212.06;5113997;28;20433;-61
2022/12/27 08:17:19;;;;;;;4.43;4.33;;;;;;;11.76;52.10;96202.72;5114708;28;20478;-61
2022/12/27 08:19:47;;;;;;;11.50;5.40;;;;;;;11.67;51.36;96197.03;5114787;28;20539;-62
2022/12/27 08:22:15;;;;;;;5.30;5.00;;;;;;;11.97;51.46;96207.09;5114535;28;20419;-62
2022/12/27 08:24:44;;;;;;;5.63;2.27;;;;;;;12.14;50.69;96209.59;5114455;28;20429;-64
2022/12/27 08:27:12;;;;;;;3.70;3.40;;;;;;;12.31;50.46;96195.09;5114522;28;20427;-63
2022/12/27 08:29:40;;;;;;;8.20;3.10;;;;;;;12.70;50.12;96208.81;5114270;28;20908;-61
2022/12/27 08:32:10;;;;;;;4.40;2.70;;;;;;;12.69;49.51;96210.69;5114285;28;20455;-61
2022/12/27 08:34:38;;;;;;;3.63;3.43;;;;;;;12.33;49.42;96152.28;5114243;28;20439;-60
2022/12/27 08:37:06;;;;;;;9.90;7.30;;;;;;;11.75;51.57;96193.13;5114176;28;20499;-60
2022/12/27 08:39:35;;;;;;;6.63;4.90;;;;;;;12.25;51.91;96188.13;5113722;28;20912;-59
2022/12/27 08:42:03;;;;;;;10.80;3.90;;;;;;;12.53;51.34;96185.09;5114185;28;20416;-60
2022/12/27 08:44:32;;;;;;;5.70;4.30;;;;;;;12.77;50.32;96187.28;5113792;28;20496;-60
2022/12/27 08:47:00;;;;;;;4.23;3.93;;;;;;;13.70;48.47;96172.81;5114060;28;20412;-59
2022/12/27 08:49:30;;;;;;;9.33;4.60;;;;;;;13.93;48.38;96202.38;5113934;28;20562;-60
2022/12/27 08:51:58;;;;;;;4.20;3.87;;;;;;;14.14;47.29;96178.34;5113898;28;20950;-59
2022/12/27 08:54:27;;;;;;;8.80;3.73;;;;;;;14.31;47.26;96184.19;5114202;28;20443;-58
2022/12/27 08:56:56;;;;;;;2.93;2.73;;;;;;;13.63;47.87;96188.25;5113937;28;20467;-58
2022/12/27 08:59:24;;;;;;;11.77;6.17;;;;;;;13.84;48.10;96184.50;5113823;28;20474;-57
2022/12/27 09:01:52;;;;;;;7.10;3.63;;;;;;;14.40;47.23;96170.03;5113544;28;20429;-57
2022/12/27 09:04:21;;;;;;;2.63;2.53;;;;;;;14.43;47.34;96161.47;5113685;28;20463;-56
2022/12/27 09:06:51;;;;;;;10.40;3.33;;;;;;;14.78;47.06;96162.38;5113895;28;20505;-58
2022/12/27 09:09:20;;;;;;;3.17;2.30;;;;;;;14.85;47.21;96153.00;5113690;28;20459;-56
2022/12/27 09:11:48;;;;;;;4.70;4.50;;;;;;;15.11;47.27;96151.78;5113679;28;20424;-56
2022/12/27 09:14:16;;;;;;;4.33;2.00;;;;;;;15.28;45.87;96116.69;5113763;28;20432;-57
2022/12/27 09:16:44;;;;;;;7.50;3.63;;;;;;;16.06;45.24;96132.59;5113594;28;20467;-55
2022/12/27 09:19:13;;;;;;;3.73;3.53;;;;;;;16.65;44.05;96121.47;5113233;28;20428;-56
2022/12/27 09:21:44;;;;;;;4.93;3.83;;;;;;;16.67;43.97;96124.69;5112617;28;20428;-56
2022/12/27 09:24:15;;;;;;;3.33;2.80;;;;;;;16.09;43.46;96055.25;5113373;28;20455;-56
2022/12/27 09:26:43;;;;;;;2.90;2.70;;;;;;;15.68;44.92;96115.59;5114147;28;20420;-55
2022/12/27 09:29:12;;;;;;;3.87;3.67;;;;;;;16.04;44.95;96118.72;5113233;28;20449;-55
2022/12/27 09:31:40;;;;;;;6.90;2.40;;;;;;;15.39;46.77;96106.72;5113636;28;20452;-55
2022/12/27 09:34:10;;;;;;;9.13;2.73;;;;;;;15.75;45.54;96095.47;5113321;28;20432;-55
2022/12/27 09:36:39;;;;;;;2.93;2.77;;;;;;;16.21;44.96;96111.03;5113303;28;20464;-56
2022/12/27 09:39:12;;;;;;;3.43;2.80;;;;;;;15.70;46.00;96031.38;5113137;28;20523;-55
2022/12/27 09:41:58;;;;;;;5.87;1.93;;;;;;;16.31;45.81;96090.31;5113089;28;20423;-55
2022/12/27 09:44:52;;;;;;;11.40;4.57;;;;;;;16.31;45.45;96090.31;5112733;28;21032;-56
2022/12/27 09:47:27;;;;;;;3.30;2.53;;;;;;;16.69;44.30;96095.75;5112889;28;20530;-55
2022/12/27 09:50:01;;;;;;;1.10;0.93;;;;;;;16.20;44.90;96104.88;5113005;28;20524;-55
2022/12/27 09:52:34;;;;;;;0.90;0.80;;;;;;;16.83;43.99;96101.97;5113108;28;20480;-55
2022/12/27 09:55:08;;;;;;;3.07;2.60;;;;;;;17.20;43.68;96093.13;5114199;28;20415;-56
2022/12/27 09:57:40;;;;;;;3.63;3.47;;;;;;;17.29;42.40;96043.13;5113509;28;20495;-56
2022/12/27 10:00:16;;;;;;;2.50;2.30;;;;;;;17.72;42.38;96087.44;5112230;28;20435;-57
2022/12/27 10:02:44;;;;;;;1.43;1.33;;;;;;;19.60;39.49;96075.13;5113219;28;20436;-57
2022/12/27 10:05:20;;;;;;;1.13;1.13;;;;;;;18.72;40.00;96063.19;5113137;28;20434;-56
2022/12/27 10:08:08;;;;;;;2.80;1.93;;;;;;;18.12;41.61;96056.38;5111887;28;20968;-56
2022/12/27 10:10:48;;;;;;;1.70;1.60;;;;;;;17.98;42.28;96037.63;5113170;28;20477;-55
2022/12/27 10:13:33;;;;;;;1.20;0.90;;;;;;;19.04;40.85;96043.41;5111572;28;20423;-55
2022/12/27 10:16:17;;;;;;;4.00;3.70;;;;;;;19.11;40.49;96040.28;5112780;28;20815;-55
2022/12/27 10:19:03;;;;;;;3.00;2.23;;;;;;;18.60;41.40;96032.59;5112822;28;20475;-55
2022/12/27 10:21:37;;;;;;;2.03;1.83;;;;;;;18.95;41.26;96029.91;5112455;28;20447;-55
2022/12/27 10:24:19;;;;;;;3.00;2.10;;;;;;;19.51;40.18;96026.66;5112641;28;20884;-55
2022/12/27 10:26:47;;;;;;;1.60;1.50;;;;;;;19.00;40.42;96021.72;5112598;28;20526;-55
2022/12/27 10:29:21;;;;;;;6.83;2.93;;;;;;;19.24;39.72;96020.63;5112132;28;20424;-55
2022/12/27 10:31:50;;;;;;;2.00;1.23;;;;;;;20.09;38.98;96010.31;5112447;28;20816;-56
2022/12/27 10:34:23;;;;;;;0.80;0.80;;;;;;;20.82;39.74;95990.63;5112606;28;20551;-51
2022/12/27 10:36:52;;;;;;;3.70;3.27;;;;;;;20.24;38.83;95996.44;5112128;28;20919;-51
2022/12/27 10:39:27;;;;;;;8.53;3.40;;;;;;;19.66;39.16;95995.13;5112482;28;20511;-51
2022/12/27 10:42:02;;;;;;;3.23;1.07;;;;;;;20.55;38.87;95995.53;5112565;28;20488;-53
2022/12/27 10:44:32;;;;;;;2.43;2.23;;;;;;;20.81;38.46;95985.56;5112408;28;20787;-50
2022/12/27 10:47:00;;;;;;;2.57;2.20;;;;;;;21.32;37.83;95972.06;5112491;28;20557;-51
2022/12/27 10:49:33;;;;;;;2.03;1.90;;;;;;;21.68;36.63;95970.84;5112120;28;20543;-51
2022/12/27 10:52:08;;;;;;;1.93;1.37;;;;;;;20.39;39.16;95908.25;5112546;28;20436;-56
2022/12/27 10:54:50;;;;;;;3.77;3.57;;;;;;;20.61;38.17;95970.03;5112136;28;20424;-56
2022/12/27 10:57:26;;;;;;;2.10;2.00;;;;;;;19.33;39.72;95976.56;5112117;28;21032;-56
2022/12/27 11:00:26;;;;;;;3.70;3.50;;;;;;;20.17;39.03;95961.09;5112091;28;20424;-56
2022/12/27 11:02:56;;;;;;;2.33;2.13;;;;;;;20.68;37.97;95938.03;5029481;28;20816;-53
2022/12/27 11:05:27;;;;;;;4.33;2.80;;;;;;;20.13;38.60;95957.44;5095486;28;20482;-52
2022/12/27 11:07:56;;;;;;;1.53;1.43;;;;;;;21.70;38.44;95947.03;5111880;28;20471;-52
2022/12/27 11:10:26;;;;;;;5.83;2.40;;;;;;;22.06;36.26;95945.41;5111841;28;20424;-52
2022/12/27 11:12:56;;;;;;;2.57;2.47;;;;;;;21.05;37.28;95936.56;5111995;28;20811;-51
2022/12/27 11:15:27;;;;;;;4.73;1.13;;;;;;;21.57;37.10;95934.53;5112032;28;20485;-51
2022/12/27 11:17:58;;;;;;;2.10;1.80;;;;;;;21.50;36.91;95933.13;5111725;28;20510;-53
2022/12/27 11:20:29;;;;;;;3.90;1.97;;;;;;;21.31;36.72;95921.13;5111643;28;20439;-52
2022/12/27 11:23:01;;;;;;;0.70;0.57;;;;;;;22.84;35.40;95918.66;5111531;28;20778;-51
2022/12/27 11:25:31;;;;;;;1.00;1.00;;;;;;;21.50;36.39;95932.34;5113519;28;20846;-51
2022/12/27 11:28:03;;;;;;;4.33;1.50;;;;;;;19.93;38.69;95925.75;5115880;28;20433;-51
2022/12/27 11:30:36;;;;;;;0.70;0.70;;;;;;;20.41;38.37;95884.50;5116112;28;20419;-52
2022/12/27 11:33:18;;;;;;;2.80;2.20;;;;;;;20.58;37.51;95922.97;5115531;28;21003;-52
2022/12/27 11:35:54;;;;;;;2.50;1.33;;;;;;;21.17;37.55;95910.56;5115676;28;20457;-52
2022/12/27 11:38:25;;;;;;;2.00;1.90;;;;;;;21.22;38.02;95926.56;5115083;28;20488;-52
2022/12/27 11:41:01;;;;;;;1.53;1.53;;;;;;;21.39;37.45;95918.41;5115523;28;21064;-52
2022/12/27 11:43:34;;;;;;;4.10;1.20;;;;;;;21.49;36.87;95888.41;5116010;28;20431;-52
2022/12/27 11:46:10;;;;;;;6.77;1.50;;;;;;;22.20;36.38;95910.09;5115422;28;20467;-52
2022/12/27 11:48:42;;;;;;;0.53;0.50;;;;;;;22.17;35.87;95913.44;5115634;28;20415;-52
2022/12/27 11:51:39;;;;;;;4.63;1.40;;;;;;;21.10;36.94;95850.19;5115790;28;20427;-52
2022/12/27 11:54:29;;;;;;;1.43;1.33;;;;;;;22.19;36.00;95903.09;5115270;28;20435;-52
2022/12/27 11:57:12;;;;;;;1.70;1.47;;;;;;;21.79;36.41;95864.09;5115471;28;20507;-52
2022/12/27 11:59:55;;;;;;;0.80;0.80;;;;;;;21.04;37.37;95903.44;5114556;28;20485;-51
2022/12/27 12:02:53;;;;;;;3.93;1.70;;;;;;;20.22;38.84;95899.03;5114966;28;20476;-52
2022/12/27 12:05:45;;;;;;;1.30;1.27;;;;;;;21.17;37.46;95889.00;5108254;28;20481;-51
2022/12/27 12:08:39;;;;;;;1.67;1.57;;;;;;;21.04;38.17;95883.75;5115227;28;20550;-51
2022/12/27 12:11:20;;;;;;;2.70;2.07;;;;;;;21.27;37.27;95888.66;5115154;28;20916;-51
2022/12/27 12:14:15;;;;;;;1.57;1.20;;;;;;;22.18;36.74;95892.63;5114892;28;20514;-52
2022/12/27 12:17:04;;;;;;;3.83;1.90;;;;;;;21.86;36.58;95883.28;5114627;28;20470;-52
2022/12/27 12:20:00;;;;;;;4.70;1.57;;;;;;;22.95;35.63;95886.59;5114948;28;20483;-52
2022/12/27 12:22:45;;;;;;;2.53;2.43;;;;;;;22.97;34.78;95870.84;5114632;28;20995;-52
2022/12/27 12:25:55;;;;;;;2.60;2.30;;;;;;;22.82;34.82;95876.88;5114180;28;20451;-52
2022/12/27 12:29:02;;;;;;;4.00;2.40;;;;;;;23.43;34.68;95881.31;5114692;28;20799;-53
2022/12/27 12:32:03;;;;;;;3.27;2.57;;;;;;;22.37;36.43;95874.03;5103374;28;20439;-53
2022/12/27 12:34:55;;;;;;;13.83;6.97;;;;;;;21.99;35.90;95868.78;5101310;28;20955;-56
2022/12/27 12:37:40;;;;;;;2.83;2.73;;;;;;;21.94;36.39;95868.97;5113493;28;21005;-56
2022/12/27 12:40:32;;;;;;;2.37;2.27;;;;;;;22.23;36.05;95868.13;5114491;28;20490;-56
2022/12/27 12:43:15;;;;;;;3.27;3.07;;;;;;;22.07;36.56;95862.53;5114214;28;20420;-56
2022/12/27 12:46:00;;;;;;;5.20;3.83;;;;;;;22.87;35.57;95852.34;5114302;28;20737;-56
2022/12/27 12:48:55;;;;;;;3.97;2.63;;;;;;;22.57;35.93;95849.72;5114150;28;20909;-56
2022/12/27 12:51:38;;;;;;;2.07;1.97;;;;;;;22.48;36.52;95854.44;5114162;28;20519;-56
2022/12/27 12:54:17;;;;;;;3.07;2.83;;;;;;;22.21;36.23;95856.88;5114009;28;20435;-56
2022/12/27 12:57:01;;;;;;;2.03;1.93;;;;;;;22.69;35.83;95855.19;5113916;28;20419;-57
2022/12/27 12:59:50;;;;;;;3.20;2.90;;;;;;;23.12;35.31;95848.56;5113675;28;20476;-57
2022/12/27 13:02:45;;;;;;;2.93;2.73;;;;;;;21.87;36.55;95860.59;5113972;28;20456;-57
2022/12/27 13:05:19;;;;;;;3.20;2.30;;;;;;;22.33;35.88;95859.63;5113787;28;20527;-57
2022/12/27 13:08:05;;;;;;;3.33;1.60;;;;;;;23.06;35.69;95856.09;5113672;28;20905;-57
2022/12/27 13:10:50;;;;;;;1.73;1.63;;;;;;;23.00;34.95;95849.31;5114440;28;20420;-57
2022/12/27 13:13:26;;;;;;;8.43;2.43;;;;;;;22.95;35.91;95854.94;5113908;28;20479;-57
2022/12/27 13:16:10;;;;;;;2.63;2.40;;;;;;;22.61;36.04;95841.75;5113233;28;20437;-58
2022/12/27 13:18:47;;;;;;;2.20;1.40;;;;;;;22.39;36.46;95863.72;5113409;28;20463;-57
2022/12/27 13:21:26;;;;;;;3.30;1.43;;;;;;;21.87;36.93;95853.31;5113241;28;20424;-57
2022/12/27 13:24:06;;;;;;;1.37;1.00;;;;;;;22.42;36.75;95853.03;5113042;28;20925;-59
2022/12/27 13:26:43;;;;;;;1.77;1.67;;;;;;;22.12;37.03;95846.94;5113142;28;20431;-56
2022/12/27 13:29:32;;;;;;;1.37;1.37;;;;;;;22.81;36.40;95842.84;5113376;28;20801;-56
2022/12/27 13:32:08;;;;;;;7.50;5.60;;;;;;;22.04;37.47;95852.38;5113377;28;20523;-57
2022/12/27 13:34:51;;;;;;;1.70;1.47;;;;;;;21.94;37.39;95850.88;5113339;28;20438;-57
2022/12/27 13:37:32;;;;;;;4.20;3.83;;;;;;;21.51;38.38;95856.50;5113161;28;20444;-56
2022/12/27 13:40:23;;;;;;;2.90;2.60;;;;;;;22.03;38.27;95858.91;5113207;28;20872;-57
2022/12/27 13:43:12;;;;;;;1.43;1.00;;;;;;;22.43;37.50;95862.72;5113030;28;20420;-57
2022/12/27 13:46:00;;;;;;;1.10;1.00;;;;;;;22.50;36.86;95859.47;5112880;28;20931;-57